sensor_id;sensor_type;location;lat;lon;timestamp;temperature;humidity
17715;DHT22;8977;50.902;4.314;2022-09-17T00:01:22;15.90;99.90
17715;DHT22;8977;50.902;4.314;2022-09-17T00:03:52;15.90;99.90
17715;DHT22;8977;50.902;4.314;2022-09-17T00:06:21;15.90;99.90
17715;DHT22;8977;50.902;4.314;2022-09-17T00:08:48;15.90;99.90
17715;DHT22;8977;50.902;4.314;2022-09-17T00:11:16;16.00;99.90
17715;DHT22;8977;50.902;4.314;2022-09-17T00:13:46;16.00;99.90
17715;DHT22;8977;50.902;4.314;2022-09-17T00:16:23;16.00;99.90
17715;DHT22;8977;50.902;4.314;2022-09-17T00:18:50;16.00;99.90
17715;DHT22;8977;50.902;4.314;2022-09-17T00:21:18;16.00;99.90
17715;DHT22;8977;50.902;4.314;2022-09-17T00:23:45;16.00;99.90
17715;DHT22;8977;50.902;4.314;2022-09-17T00:26:12;16.00;99.90
17715;DHT22;8977;50.902;4.314;2022-09-17T00:28:39;16.00;99.90
17715;DHT22;8977;50.902;4.314;2022-09-17T00:31:10;16.00;99.90
17715;DHT22;8977;50.902;4.314;2022-09-17T00:33:38;16.00;99.90
17715;DHT22;8977;50.902;4.314;2022-09-17T00:36:05;15.90;99.90
17715;DHT22;8977;50.902;4.314;2022-09-17T00:38:33;15.90;99.90
17715;DHT22;8977;50.902;4.314;2022-09-17T00:41:01;15.90;99.90
17715;DHT22;8977;50.902;4.314;2022-09-17T00:43:34;15.90;99.90
17715;DHT22;8977;50.902;4.314;2022-09-17T00:46:02;15.90;99.90
17715;DHT22;8977;50.902;4.314;2022-09-17T00:48:28;15.90;99.90
17715;DHT22;8977;50.902;4.314;2022-09-17T00:50:58;15.90;99.90
17715;DHT22;8977;50.902;4.314;2022-09-17T00:53:26;15.90;99.90
17715;DHT22;8977;50.902;4.314;2022-09-17T00:55:58;15.80;99.90
17715;DHT22;8977;50.902;4.314;2022-09-17T00:58:28;15.90;99.90
17715;DHT22;8977;50.902;4.314;2022-09-17T01:00:56;15.80;99.90
17715;DHT22;8977;50.902;4.314;2022-09-17T01:03:24;15.80;99.90
17715;DHT22;8977;50.902;4.314;2022-09-17T01:06:01;15.80;99.90
17715;DHT22;8977;50.902;4.314;2022-09-17T01:08:43;15.80;99.90
17715;DHT22;8977;50.902;4.314;2022-09-17T01:11:28;15.80;99.90
17715;DHT22;8977;50.902;4.314;2022-09-17T01:14:07;15.80;99.90
17715;DHT22;8977;50.902;4.314;2022-09-17T01:16:50;15.80;99.90
17715;DHT22;8977;50.902;4.314;2022-09-17T01:22:45;15.90;99.90
17715;DHT22;8977;50.902;4.314;2022-09-17T01:25:21;15.80;99.90
17715;DHT22;8977;50.902;4.314;2022-09-17T01:31:12;15.80;99.90
17715;DHT22;8977;50.902;4.314;2022-09-17T01:33:47;15.80;99.90
17715;DHT22;8977;50.902;4.314;2022-09-17T01:36:25;15.80;99.90
17715;DHT22;8977;50.902;4.314;2022-09-17T01:39:02;15.80;99.90
17715;DHT22;8977;50.902;4.314;2022-09-17T01:41:35;15.80;99.90
17715;DHT22;8977;50.902;4.314;2022-09-17T01:44:10;15.80;99.90
17715;DHT22;8977;50.902;4.314;2022-09-17T01:46:43;15.90;99.90
17715;DHT22;8977;50.902;4.314;2022-09-17T01:49:14;15.90;99.90
17715;DHT22;8977;50.902;4.314;2022-09-17T01:51:45;15.90;99.90
17715;DHT22;8977;50.902;4.314;2022-09-17T01:54:16;15.90;99.90
17715;DHT22;8977;50.902;4.314;2022-09-17T01:56:49;15.90;99.90
17715;DHT22;8977;50.902;4.314;2022-09-17T01:59:21;15.90;99.90
17715;DHT22;8977;50.902;4.314;2022-09-17T02:01:52;15.80;99.90
17715;DHT22;8977;50.902;4.314;2022-09-17T02:04:24;15.80;99.90
17715;DHT22;8977;50.902;4.314;2022-09-17T02:06:55;15.90;99.90
17715;DHT22;8977;50.902;4.314;2022-09-17T02:09:26;15.90;99.90
17715;DHT22;8977;50.902;4.314;2022-09-17T02:11:59;15.90;99.90
17715;DHT22;8977;50.902;4.314;2022-09-17T02:14:32;15.90;99.90
17715;DHT22;8977;50.902;4.314;2022-09-17T02:17:06;15.70;99.90
17715;DHT22;8977;50.902;4.314;2022-09-17T02:19:37;15.80;99.90
17715;DHT22;8977;50.902;4.314;2022-09-17T02:22:13;15.80;99.90
17715;DHT22;8977;50.902;4.314;2022-09-17T02:24:44;15.90;99.90
17715;DHT22;8977;50.902;4.314;2022-09-17T02:27:17;15.80;99.90
17715;DHT22;8977;50.902;4.314;2022-09-17T02:29:46;15.80;99.90
17715;DHT22;8977;50.902;4.314;2022-09-17T02:32:14;15.80;99.90
17715;DHT22;8977;50.902;4.314;2022-09-17T02:34:41;15.80;99.90
17715;DHT22;8977;50.902;4.314;2022-09-17T02:37:08;15.80;99.90
17715;DHT22;8977;50.902;4.314;2022-09-17T02:39:35;15.80;99.90
17715;DHT22;8977;50.902;4.314;2022-09-17T02:42:07;15.80;99.90
17715;DHT22;8977;50.902;4.314;2022-09-17T02:44:47;15.90;99.90
17715;DHT22;8977;50.902;4.314;2022-09-17T02:47:50;15.90;99.90
17715;DHT22;8977;50.902;4.314;2022-09-17T02:50:29;15.90;99.90
17715;DHT22;8977;50.902;4.314;2022-09-17T02:53:10;15.90;99.90
17715;DHT22;8977;50.902;4.314;2022-09-17T02:55:42;15.90;99.90
17715;DHT22;8977;50.902;4.314;2022-09-17T02:58:20;15.90;99.90
17715;DHT22;8977;50.902;4.314;2022-09-17T03:00:50;15.90;99.90
17715;DHT22;8977;50.902;4.314;2022-09-17T03:03:25;15.90;99.90
17715;DHT22;8977;50.902;4.314;2022-09-17T03:05:53;15.90;99.90
17715;DHT22;8977;50.902;4.314;2022-09-17T03:08:27;15.90;99.90
17715;DHT22;8977;50.902;4.314;2022-09-17T03:10:54;15.80;99.90
17715;DHT22;8977;50.902;4.314;2022-09-17T03:13:21;15.80;99.90
17715;DHT22;8977;50.902;4.314;2022-09-17T03:15:48;15.80;99.90
17715;DHT22;8977;50.902;4.314;2022-09-17T03:18:15;15.80;99.90
17715;DHT22;8977;50.902;4.314;2022-09-17T03:20:43;15.80;99.90
17715;DHT22;8977;50.902;4.314;2022-09-17T03:23:11;15.80;99.90
17715;DHT22;8977;50.902;4.314;2022-09-17T03:25:37;15.80;99.90
17715;DHT22;8977;50.902;4.314;2022-09-17T03:28:04;15.80;99.90
17715;DHT22;8977;50.902;4.314;2022-09-17T03:30:31;15.80;99.90
17715;DHT22;8977;50.902;4.314;2022-09-17T03:32:58;15.80;99.90
17715;DHT22;8977;50.902;4.314;2022-09-17T03:35:25;15.80;99.90
17715;DHT22;8977;50.902;4.314;2022-09-17T03:37:53;15.80;99.90
17715;DHT22;8977;50.902;4.314;2022-09-17T03:40:20;15.70;99.90
17715;DHT22;8977;50.902;4.314;2022-09-17T03:42:47;15.70;99.90
17715;DHT22;8977;50.902;4.314;2022-09-17T03:45:14;15.70;99.90
17715;DHT22;8977;50.902;4.314;2022-09-17T03:47:41;15.60;99.90
17715;DHT22;8977;50.902;4.314;2022-09-17T03:50:08;15.60;99.90
17715;DHT22;8977;50.902;4.314;2022-09-17T03:52:35;15.50;99.90
17715;DHT22;8977;50.902;4.314;2022-09-17T03:55:04;15.60;99.90
17715;DHT22;8977;50.902;4.314;2022-09-17T03:57:31;15.60;99.90
17715;DHT22;8977;50.902;4.314;2022-09-17T03:59:57;15.60;99.90
17715;DHT22;8977;50.902;4.314;2022-09-17T04:02:24;15.50;99.90
17715;DHT22;8977;50.902;4.314;2022-09-17T04:04:51;15.50;99.90
17715;DHT22;8977;50.902;4.314;2022-09-17T04:07:18;15.50;99.90
17715;DHT22;8977;50.902;4.314;2022-09-17T04:09:45;15.50;99.90
17715;DHT22;8977;50.902;4.314;2022-09-17T04:12:13;15.60;99.90
17715;DHT22;8977;50.902;4.314;2022-09-17T04:14:40;15.50;99.90
17715;DHT22;8977;50.902;4.314;2022-09-17T04:17:07;15.50;99.90
17715;DHT22;8977;50.902;4.314;2022-09-17T04:19:34;15.40;99.90
17715;DHT22;8977;50.902;4.314;2022-09-17T04:22:00;15.50;99.90
17715;DHT22;8977;50.902;4.314;2022-09-17T04:24:27;15.50;99.90
17715;DHT22;8977;50.902;4.314;2022-09-17T04:26:54;15.40;99.90
17715;DHT22;8977;50.902;4.314;2022-09-17T04:29:22;15.50;99.90
17715;DHT22;8977;50.902;4.314;2022-09-17T04:31:49;15.50;99.90
17715;DHT22;8977;50.902;4.314;2022-09-17T04:34:16;15.50;99.90
17715;DHT22;8977;50.902;4.314;2022-09-17T04:36:43;15.40;99.90
17715;DHT22;8977;50.902;4.314;2022-09-17T04:39:10;15.50;99.90
17715;DHT22;8977;50.902;4.314;2022-09-17T04:41:37;15.50;99.90
17715;DHT22;8977;50.902;4.314;2022-09-17T04:44:04;15.50;99.90
17715;DHT22;8977;50.902;4.314;2022-09-17T04:46:33;15.40;99.90
17715;DHT22;8977;50.902;4.314;2022-09-17T04:49:00;15.40;99.90
17715;DHT22;8977;50.902;4.314;2022-09-17T04:51:26;15.40;99.90
17715;DHT22;8977;50.902;4.314;2022-09-17T04:53:53;15.40;99.90
17715;DHT22;8977;50.902;4.314;2022-09-17T04:56:20;15.40;99.90
17715;DHT22;8977;50.902;4.314;2022-09-17T04:58:47;15.40;99.90
17715;DHT22;8977;50.902;4.314;2022-09-17T05:01:14;15.50;99.90
17715;DHT22;8977;50.902;4.314;2022-09-17T05:03:44;15.50;99.90
17715;DHT22;8977;50.902;4.314;2022-09-17T05:06:11;15.40;99.90
17715;DHT22;8977;50.902;4.314;2022-09-17T05:08:38;15.40;99.90
17715;DHT22;8977;50.902;4.314;2022-09-17T05:11:05;15.40;99.90
17715;DHT22;8977;50.902;4.314;2022-09-17T05:13:32;15.40;99.90
17715;DHT22;8977;50.902;4.314;2022-09-17T05:15:58;15.40;99.90
17715;DHT22;8977;50.902;4.314;2022-09-17T05:18:25;15.40;99.90
17715;DHT22;8977;50.902;4.314;2022-09-17T05:20:54;15.40;99.90
17715;DHT22;8977;50.902;4.314;2022-09-17T05:23:20;15.40;99.90
17715;DHT22;8977;50.902;4.314;2022-09-17T05:25:47;15.40;99.90
17715;DHT22;8977;50.902;4.314;2022-09-17T05:28:14;15.40;99.90
17715;DHT22;8977;50.902;4.314;2022-09-17T05:30:41;15.40;99.90
17715;DHT22;8977;50.902;4.314;2022-09-17T05:33:08;15.50;99.90
17715;DHT22;8977;50.902;4.314;2022-09-17T05:35:35;15.40;99.90
17715;DHT22;8977;50.902;4.314;2022-09-17T05:38:04;15.30;99.90
17715;DHT22;8977;50.902;4.314;2022-09-17T05:40:32;15.40;99.90
17715;DHT22;8977;50.902;4.314;2022-09-17T05:42:59;15.40;99.90
17715;DHT22;8977;50.902;4.314;2022-09-17T05:45:26;15.40;99.90
17715;DHT22;8977;50.902;4.314;2022-09-17T05:47:56;15.40;99.90
17715;DHT22;8977;50.902;4.314;2022-09-17T05:50:24;15.40;99.90
17715;DHT22;8977;50.902;4.314;2022-09-17T05:52:51;15.40;99.90
17715;DHT22;8977;50.902;4.314;2022-09-17T05:55:21;15.40;99.90
17715;DHT22;8977;50.902;4.314;2022-09-17T05:57:48;15.40;99.90
17715;DHT22;8977;50.902;4.314;2022-09-17T06:00:16;15.40;99.90
17715;DHT22;8977;50.902;4.314;2022-09-17T06:02:43;15.50;99.90
17715;DHT22;8977;50.902;4.314;2022-09-17T06:05:10;15.50;99.90
17715;DHT22;8977;50.902;4.314;2022-09-17T06:07:37;15.50;99.90
17715;DHT22;8977;50.902;4.314;2022-09-17T06:10:05;15.50;99.90
17715;DHT22;8977;50.902;4.314;2022-09-17T06:12:34;15.50;99.90
17715;DHT22;8977;50.902;4.314;2022-09-17T06:15:01;15.50;99.90
17715;DHT22;8977;50.902;4.314;2022-09-17T06:17:27;15.50;99.90
17715;DHT22;8977;50.902;4.314;2022-09-17T06:19:54;15.40;99.90
17715;DHT22;8977;50.902;4.314;2022-09-17T06:22:21;15.40;99.90
17715;DHT22;8977;50.902;4.314;2022-09-17T06:24:48;15.50;99.90
17715;DHT22;8977;50.902;4.314;2022-09-17T06:27:14;15.50;99.90
17715;DHT22;8977;50.902;4.314;2022-09-17T06:29:43;15.50;99.90
17715;DHT22;8977;50.902;4.314;2022-09-17T06:32:10;15.50;99.90
17715;DHT22;8977;50.902;4.314;2022-09-17T06:34:37;15.50;99.90
17715;DHT22;8977;50.902;4.314;2022-09-17T06:37:04;15.40;99.90
17715;DHT22;8977;50.902;4.314;2022-09-17T06:39:32;15.50;99.90
17715;DHT22;8977;50.902;4.314;2022-09-17T06:41:58;15.50;99.90
17715;DHT22;8977;50.902;4.314;2022-09-17T06:44:25;15.50;99.90
17715;DHT22;8977;50.902;4.314;2022-09-17T06:46:53;15.50;99.90
17715;DHT22;8977;50.902;4.314;2022-09-17T06:49:20;15.60;99.90
17715;DHT22;8977;50.902;4.314;2022-09-17T06:51:47;15.60;99.90
17715;DHT22;8977;50.902;4.314;2022-09-17T06:54:14;15.60;99.90
17715;DHT22;8977;50.902;4.314;2022-09-17T06:56:41;15.60;99.90
17715;DHT22;8977;50.902;4.314;2022-09-17T06:59:07;15.60;99.90
17715;DHT22;8977;50.902;4.314;2022-09-17T07:01:34;15.60;99.90
17715;DHT22;8977;50.902;4.314;2022-09-17T07:04:04;15.60;99.90
17715;DHT22;8977;50.902;4.314;2022-09-17T07:06:31;15.70;99.90
17715;DHT22;8977;50.902;4.314;2022-09-17T07:08:57;15.60;99.90
17715;DHT22;8977;50.902;4.314;2022-09-17T07:11:24;15.60;99.90
17715;DHT22;8977;50.902;4.314;2022-09-17T07:13:51;15.70;99.90
17715;DHT22;8977;50.902;4.314;2022-09-17T07:16:18;15.60;99.90
17715;DHT22;8977;50.902;4.314;2022-09-17T07:18:45;15.70;99.90
17715;DHT22;8977;50.902;4.314;2022-09-17T07:21:13;15.70;99.90
17715;DHT22;8977;50.902;4.314;2022-09-17T07:23:40;15.70;99.90
17715;DHT22;8977;50.902;4.314;2022-09-17T07:26:11;15.70;99.90
17715;DHT22;8977;50.902;4.314;2022-09-17T07:28:38;15.90;99.90
17715;DHT22;8977;50.902;4.314;2022-09-17T07:31:06;15.80;99.90
17715;DHT22;8977;50.902;4.314;2022-09-17T07:33:34;15.80;99.90
17715;DHT22;8977;50.902;4.314;2022-09-17T07:36:03;15.70;99.90
17715;DHT22;8977;50.902;4.314;2022-09-17T07:38:32;15.80;99.90
17715;DHT22;8977;50.902;4.314;2022-09-17T07:41:01;15.70;99.90
17715;DHT22;8977;50.902;4.314;2022-09-17T07:43:29;15.80;99.90
17715;DHT22;8977;50.902;4.314;2022-09-17T07:45:57;15.80;99.90
17715;DHT22;8977;50.902;4.314;2022-09-17T07:48:26;15.70;99.90
17715;DHT22;8977;50.902;4.314;2022-09-17T07:50:53;15.80;99.90
17715;DHT22;8977;50.902;4.314;2022-09-17T07:53:20;15.90;99.90
17715;DHT22;8977;50.902;4.314;2022-09-17T07:55:52;15.90;99.90
17715;DHT22;8977;50.902;4.314;2022-09-17T07:58:19;15.90;99.90
17715;DHT22;8977;50.902;4.314;2022-09-17T08:00:46;16.00;99.90
17715;DHT22;8977;50.902;4.314;2022-09-17T08:03:13;15.90;99.90
17715;DHT22;8977;50.902;4.314;2022-09-17T08:05:40;15.80;99.90
17715;DHT22;8977;50.902;4.314;2022-09-17T08:08:07;15.90;99.90
17715;DHT22;8977;50.902;4.314;2022-09-17T08:10:34;15.80;99.90
17715;DHT22;8977;50.902;4.314;2022-09-17T08:13:02;15.90;99.90
17715;DHT22;8977;50.902;4.314;2022-09-17T08:15:29;15.90;99.90
17715;DHT22;8977;50.902;4.314;2022-09-17T08:17:55;16.00;99.90
17715;DHT22;8977;50.902;4.314;2022-09-17T08:20:22;15.90;99.90
17715;DHT22;8977;50.902;4.314;2022-09-17T08:22:57;15.90;99.90
17715;DHT22;8977;50.902;4.314;2022-09-17T08:25:24;15.90;99.90
17715;DHT22;8977;50.902;4.314;2022-09-17T08:27:52;15.90;99.90
17715;DHT22;8977;50.902;4.314;2022-09-17T08:30:20;16.00;99.90
17715;DHT22;8977;50.902;4.314;2022-09-17T08:32:47;16.20;99.90
17715;DHT22;8977;50.902;4.314;2022-09-17T08:35:14;16.20;99.90
17715;DHT22;8977;50.902;4.314;2022-09-17T08:37:42;16.20;99.90
17715;DHT22;8977;50.902;4.314;2022-09-17T08:40:13;16.30;99.90
17715;DHT22;8977;50.902;4.314;2022-09-17T08:42:50;16.30;99.90
17715;DHT22;8977;50.902;4.314;2022-09-17T08:45:20;16.30;99.90
17715;DHT22;8977;50.902;4.314;2022-09-17T08:47:47;16.40;99.90
17715;DHT22;8977;50.902;4.314;2022-09-17T08:50:15;16.30;99.90
17715;DHT22;8977;50.902;4.314;2022-09-17T08:53:11;16.20;99.90
17715;DHT22;8977;50.902;4.314;2022-09-17T08:55:42;16.30;99.90
17715;DHT22;8977;50.902;4.314;2022-09-17T08:58:40;16.30;99.90
17715;DHT22;8977;50.902;4.314;2022-09-17T09:01:20;16.40;99.90
17715;DHT22;8977;50.902;4.314;2022-09-17T09:06:42;16.40;99.90
17715;DHT22;8977;50.902;4.314;2022-09-17T09:09:12;16.40;99.90
17715;DHT22;8977;50.902;4.314;2022-09-17T09:11:41;16.30;99.90
17715;DHT22;8977;50.902;4.314;2022-09-17T09:14:14;16.20;99.90
17715;DHT22;8977;50.902;4.314;2022-09-17T09:16:44;16.30;99.90
17715;DHT22;8977;50.902;4.314;2022-09-17T09:19:19;16.20;99.90
17715;DHT22;8977;50.902;4.314;2022-09-17T09:21:59;16.30;99.90
17715;DHT22;8977;50.902;4.314;2022-09-17T09:24:35;16.30;99.90
17715;DHT22;8977;50.902;4.314;2022-09-17T09:27:14;16.20;99.90
17715;DHT22;8977;50.902;4.314;2022-09-17T09:29:49;16.10;99.90
17715;DHT22;8977;50.902;4.314;2022-09-17T09:32:27;16.10;99.90
17715;DHT22;8977;50.902;4.314;2022-09-17T09:35:12;16.20;99.90
17715;DHT22;8977;50.902;4.314;2022-09-17T09:37:44;16.20;99.90
17715;DHT22;8977;50.902;4.314;2022-09-17T09:40:33;16.10;99.90
17715;DHT22;8977;50.902;4.314;2022-09-17T09:43:08;16.20;99.90
17715;DHT22;8977;50.902;4.314;2022-09-17T09:45:46;16.00;99.90
17715;DHT22;8977;50.902;4.314;2022-09-17T09:48:23;16.00;99.90
17715;DHT22;8977;50.902;4.314;2022-09-17T09:51:03;16.00;99.90
17715;DHT22;8977;50.902;4.314;2022-09-17T09:53:40;16.10;99.90
17715;DHT22;8977;50.902;4.314;2022-09-17T09:56:24;16.10;99.90
17715;DHT22;8977;50.902;4.314;2022-09-17T09:58:53;16.10;99.90
17715;DHT22;8977;50.902;4.314;2022-09-17T10:01:20;16.10;99.90
17715;DHT22;8977;50.902;4.314;2022-09-17T10:03:52;16.20;99.90
17715;DHT22;8977;50.902;4.314;2022-09-17T10:06:23;16.00;99.90
17715;DHT22;8977;50.902;4.314;2022-09-17T10:09:10;16.10;99.90
17715;DHT22;8977;50.902;4.314;2022-09-17T10:11:58;16.20;99.90
17715;DHT22;8977;50.902;4.314;2022-09-17T10:14:27;16.30;99.90
17715;DHT22;8977;50.902;4.314;2022-09-17T10:17:17;16.40;99.90
17715;DHT22;8977;50.902;4.314;2022-09-17T10:20:07;16.30;99.90
17715;DHT22;8977;50.902;4.314;2022-09-17T10:22:39;16.30;99.90
17715;DHT22;8977;50.902;4.314;2022-09-17T10:25:21;16.30;99.90
17715;DHT22;8977;50.902;4.314;2022-09-17T10:27:49;16.40;99.90
17715;DHT22;8977;50.902;4.314;2022-09-17T10:30:17;16.40;99.90
17715;DHT22;8977;50.902;4.314;2022-09-17T10:33:14;16.30;99.90
17715;DHT22;8977;50.902;4.314;2022-09-17T10:35:54;16.30;99.90
17715;DHT22;8977;50.902;4.314;2022-09-17T10:38:30;16.30;99.90
17715;DHT22;8977;50.902;4.314;2022-09-17T10:41:12;16.20;99.90
17715;DHT22;8977;50.902;4.314;2022-09-17T10:43:40;16.20;99.90
17715;DHT22;8977;50.902;4.314;2022-09-17T10:46:10;16.10;99.90
17715;DHT22;8977;50.902;4.314;2022-09-17T10:48:42;16.10;99.90
17715;DHT22;8977;50.902;4.314;2022-09-17T10:51:19;16.20;99.90
17715;DHT22;8977;50.902;4.314;2022-09-17T10:54:18;16.10;99.90
17715;DHT22;8977;50.902;4.314;2022-09-17T10:56:53;16.20;99.90
17715;DHT22;8977;50.902;4.314;2022-09-17T10:59:43;16.10;99.90
17715;DHT22;8977;50.902;4.314;2022-09-17T11:02:33;16.20;99.90
17715;DHT22;8977;50.902;4.314;2022-09-17T11:05:06;16.20;99.90
17715;DHT22;8977;50.902;4.314;2022-09-17T11:07:47;16.20;99.90
17715;DHT22;8977;50.902;4.314;2022-09-17T11:10:22;16.10;99.90
17715;DHT22;8977;50.902;4.314;2022-09-17T11:13:02;16.20;99.90
17715;DHT22;8977;50.902;4.314;2022-09-17T11:15:42;16.30;99.90
17715;DHT22;8977;50.902;4.314;2022-09-17T11:18:31;16.30;99.90
17715;DHT22;8977;50.902;4.314;2022-09-17T11:21:32;16.40;99.90
17715;DHT22;8977;50.902;4.314;2022-09-17T11:27:22;16.30;99.90
17715;DHT22;8977;50.902;4.314;2022-09-17T11:30:06;16.30;99.90
17715;DHT22;8977;50.902;4.314;2022-09-17T11:32:48;16.20;99.90
17715;DHT22;8977;50.902;4.314;2022-09-17T11:35:18;16.10;99.90
17715;DHT22;8977;50.902;4.314;2022-09-17T11:37:50;16.10;99.90
17715;DHT22;8977;50.902;4.314;2022-09-17T11:40:24;16.10;99.90
17715;DHT22;8977;50.902;4.314;2022-09-17T11:42:57;16.20;99.90
17715;DHT22;8977;50.902;4.314;2022-09-17T11:45:30;16.20;99.90
17715;DHT22;8977;50.902;4.314;2022-09-17T11:48:04;16.20;99.90
17715;DHT22;8977;50.902;4.314;2022-09-17T11:50:39;16.10;99.90
17715;DHT22;8977;50.902;4.314;2022-09-17T11:53:18;16.10;99.90
17715;DHT22;8977;50.902;4.314;2022-09-17T11:55:57;16.20;99.90
17715;DHT22;8977;50.902;4.314;2022-09-17T11:58:36;16.30;99.90
17715;DHT22;8977;50.902;4.314;2022-09-17T12:01:12;16.30;99.90
17715;DHT22;8977;50.902;4.314;2022-09-17T12:03:55;16.30;99.90
17715;DHT22;8977;50.902;4.314;2022-09-17T12:06:31;16.50;99.90
17715;DHT22;8977;50.902;4.314;2022-09-17T12:09:13;16.60;99.90
17715;DHT22;8977;50.902;4.314;2022-09-17T12:11:54;16.50;99.90
17715;DHT22;8977;50.902;4.314;2022-09-17T12:14:27;16.70;99.90
17715;DHT22;8977;50.902;4.314;2022-09-17T12:17:02;16.60;99.90
17715;DHT22;8977;50.902;4.314;2022-09-17T12:19:41;16.70;99.90
17715;DHT22;8977;50.902;4.314;2022-09-17T12:22:13;16.80;99.90
17715;DHT22;8977;50.902;4.314;2022-09-17T12:24:43;16.80;99.90
17715;DHT22;8977;50.902;4.314;2022-09-17T12:27:27;16.70;99.90
17715;DHT22;8977;50.902;4.314;2022-09-17T12:30:07;16.70;99.90
17715;DHT22;8977;50.902;4.314;2022-09-17T12:32:53;16.80;99.90
17715;DHT22;8977;50.902;4.314;2022-09-17T12:35:40;16.90;99.90
17715;DHT22;8977;50.902;4.314;2022-09-17T12:38:25;16.90;99.90
17715;DHT22;8977;50.902;4.314;2022-09-17T12:40:59;16.90;99.90
17715;DHT22;8977;50.902;4.314;2022-09-17T12:43:53;16.90;99.90
17715;DHT22;8977;50.902;4.314;2022-09-17T12:46:37;16.90;99.90
17715;DHT22;8977;50.902;4.314;2022-09-17T12:49:38;16.80;99.90
17715;DHT22;8977;50.902;4.314;2022-09-17T12:52:13;16.70;99.90
17715;DHT22;8977;50.902;4.314;2022-09-17T12:55:02;16.60;99.90
17715;DHT22;8977;50.902;4.314;2022-09-17T12:57:37;16.50;99.90
17715;DHT22;8977;50.902;4.314;2022-09-17T13:00:10;16.40;99.90
17715;DHT22;8977;50.902;4.314;2022-09-17T13:02:40;16.50;99.90
17715;DHT22;8977;50.902;4.314;2022-09-17T13:14:26;16.10;99.90
17715;DHT22;8977;50.902;4.314;2022-09-17T13:17:05;16.20;99.90
17715;DHT22;8977;50.902;4.314;2022-09-17T13:19:38;16.30;99.90
17715;DHT22;8977;50.902;4.314;2022-09-17T13:22:14;16.40;99.90
17715;DHT22;8977;50.902;4.314;2022-09-17T13:24:42;16.40;99.90
17715;DHT22;8977;50.902;4.314;2022-09-17T13:27:20;16.60;99.90
17715;DHT22;8977;50.902;4.314;2022-09-17T13:30:01;16.70;99.90
17715;DHT22;8977;50.902;4.314;2022-09-17T13:32:49;16.60;99.90
17715;DHT22;8977;50.902;4.314;2022-09-17T13:35:50;16.60;99.90
17715;DHT22;8977;50.902;4.314;2022-09-17T13:38:21;16.70;99.90
17715;DHT22;8977;50.902;4.314;2022-09-17T13:40:51;16.90;99.90
17715;DHT22;8977;50.902;4.314;2022-09-17T13:43:21;17.00;99.90
17715;DHT22;8977;50.902;4.314;2022-09-17T13:46:13;17.20;99.90
17715;DHT22;8977;50.902;4.314;2022-09-17T13:48:54;17.40;99.90
17715;DHT22;8977;50.902;4.314;2022-09-17T13:51:50;17.50;99.90
17715;DHT22;8977;50.902;4.314;2022-09-17T13:54:19;17.70;99.90
17715;DHT22;8977;50.902;4.314;2022-09-17T13:56:50;17.80;99.90
17715;DHT22;8977;50.902;4.314;2022-09-17T13:59:20;17.90;99.90
17715;DHT22;8977;50.902;4.314;2022-09-17T14:02:10;18.00;99.90
17715;DHT22;8977;50.902;4.314;2022-09-17T14:04:54;18.10;99.90
17715;DHT22;8977;50.902;4.314;2022-09-17T14:07:34;18.10;99.90
17715;DHT22;8977;50.902;4.314;2022-09-17T14:10:33;18.10;99.90
17715;DHT22;8977;50.902;4.314;2022-09-17T14:13:23;18.10;99.90
17715;DHT22;8977;50.902;4.314;2022-09-17T14:15:58;18.20;99.90
17715;DHT22;8977;50.902;4.314;2022-09-17T14:18:42;18.10;99.90
17715;DHT22;8977;50.902;4.314;2022-09-17T14:21:24;18.00;99.90
17715;DHT22;8977;50.902;4.314;2022-09-17T14:23:58;17.90;99.90
17715;DHT22;8977;50.902;4.314;2022-09-17T14:27:02;17.90;99.90
17715;DHT22;8977;50.902;4.314;2022-09-17T14:29:49;17.90;99.90
17715;DHT22;8977;50.902;4.314;2022-09-17T14:32:23;17.70;99.90
17715;DHT22;8977;50.902;4.314;2022-09-17T14:34:57;17.50;99.90
17715;DHT22;8977;50.902;4.314;2022-09-17T14:37:26;17.40;99.90
17715;DHT22;8977;50.902;4.314;2022-09-17T14:39:54;17.20;99.90
17715;DHT22;8977;50.902;4.314;2022-09-17T14:42:24;16.90;99.90
17715;DHT22;8977;50.902;4.314;2022-09-17T14:44:57;16.80;99.90
17715;DHT22;8977;50.902;4.314;2022-09-17T14:47:26;16.80;99.90
17715;DHT22;8977;50.902;4.314;2022-09-17T14:49:53;16.70;99.90
17715;DHT22;8977;50.902;4.314;2022-09-17T14:52:26;16.60;99.90
17715;DHT22;8977;50.902;4.314;2022-09-17T14:55:24;16.60;99.90
17715;DHT22;8977;50.902;4.314;2022-09-17T14:57:56;16.60;99.90
17715;DHT22;8977;50.902;4.314;2022-09-17T15:00:32;16.60;99.90
17715;DHT22;8977;50.902;4.314;2022-09-17T15:03:00;16.60;99.90
17715;DHT22;8977;50.902;4.314;2022-09-17T15:05:28;16.70;99.90
17715;DHT22;8977;50.902;4.314;2022-09-17T15:08:12;16.70;99.90
17715;DHT22;8977;50.902;4.314;2022-09-17T15:10:51;16.70;99.90
17715;DHT22;8977;50.902;4.314;2022-09-17T15:13:22;16.60;99.90
17715;DHT22;8977;50.902;4.314;2022-09-17T15:16:02;16.60;99.90
17715;DHT22;8977;50.902;4.314;2022-09-17T15:18:34;16.70;99.90
17715;DHT22;8977;50.902;4.314;2022-09-17T15:21:03;16.70;99.90
17715;DHT22;8977;50.902;4.314;2022-09-17T15:23:35;16.70;99.90
17715;DHT22;8977;50.902;4.314;2022-09-17T15:26:02;16.70;99.90
17715;DHT22;8977;50.902;4.314;2022-09-17T15:28:33;16.70;99.90
17715;DHT22;8977;50.902;4.314;2022-09-17T15:31:02;16.70;99.90
17715;DHT22;8977;50.902;4.314;2022-09-17T15:33:30;16.60;99.90
17715;DHT22;8977;50.902;4.314;2022-09-17T15:36:08;16.50;99.90
17715;DHT22;8977;50.902;4.314;2022-09-17T15:38:41;16.60;99.90
17715;DHT22;8977;50.902;4.314;2022-09-17T15:41:30;16.50;99.90
17715;DHT22;8977;50.902;4.314;2022-09-17T15:44:14;16.50;99.90
17715;DHT22;8977;50.902;4.314;2022-09-17T15:46:43;16.50;99.90
17715;DHT22;8977;50.902;4.314;2022-09-17T15:49:27;16.60;99.90
17715;DHT22;8977;50.902;4.314;2022-09-17T15:51:54;16.70;99.90
17715;DHT22;8977;50.902;4.314;2022-09-17T15:54:30;16.70;99.90
17715;DHT22;8977;50.902;4.314;2022-09-17T15:56:59;16.60;99.90
17715;DHT22;8977;50.902;4.314;2022-09-17T15:59:28;16.60;99.90
17715;DHT22;8977;50.902;4.314;2022-09-17T16:01:57;16.60;99.90
17715;DHT22;8977;50.902;4.314;2022-09-17T16:04:27;16.50;99.90
17715;DHT22;8977;50.902;4.314;2022-09-17T16:07:00;16.30;99.90
17715;DHT22;8977;50.902;4.314;2022-09-17T16:09:43;16.30;99.90
17715;DHT22;8977;50.902;4.314;2022-09-17T16:12:13;16.40;99.90
17715;DHT22;8977;50.902;4.314;2022-09-17T16:14:44;16.30;99.90
17715;DHT22;8977;50.902;4.314;2022-09-17T16:17:32;16.40;99.90
17715;DHT22;8977;50.902;4.314;2022-09-17T16:20:05;16.50;99.90
17715;DHT22;8977;50.902;4.314;2022-09-17T16:22:33;16.50;99.90
17715;DHT22;8977;50.902;4.314;2022-09-17T16:25:01;16.50;99.90
17715;DHT22;8977;50.902;4.314;2022-09-17T16:27:31;16.50;99.90
17715;DHT22;8977;50.902;4.314;2022-09-17T16:30:02;16.50;99.90
17715;DHT22;8977;50.902;4.314;2022-09-17T16:32:29;16.50;99.90
17715;DHT22;8977;50.902;4.314;2022-09-17T16:34:56;16.60;99.90
17715;DHT22;8977;50.902;4.314;2022-09-17T16:37:23;16.60;99.90
17715;DHT22;8977;50.902;4.314;2022-09-17T16:39:50;16.50;99.90
17715;DHT22;8977;50.902;4.314;2022-09-17T16:42:18;16.60;99.90